< < Back
Terminal Aerodrome Forecast


Current Version              Previous Versions:   1  2  3  4  5  6  7  8  9  

Terminal Aerodrome Forecast

177
FTUS42 KTAE 011700
TAFDHN
TAF
KDHN 011723Z 0118/0218 10004KT P6SM BKN045
     FM012100 12003KT P6SM SCT040
     FM020900 11003KT 4SM BR SCT100
     FM021300 14004KT P6SM SCT100=



Latest METAR

326
SAUS70 KWBC 020000 RRD
MTRDHN
METAR KDHN 012353Z 00000KT 10SM BKN060 24/19 A3000 RMK AO2 SLP153
T02390194 10294 20239 53008


USA.gov is the U.S. government's official web portal to all federal, state and local government web resources and services.